createdAt,value
2023-05-21T00:04:13.186Z,8.45
2023-05-21T00:14:24.376Z,9.54
2023-05-21T00:24:23.402Z,8.08
2023-05-21T00:34:32.331Z,10.51
2023-05-21T00:44:41.126Z,8.04
2023-05-21T00:54:49.947Z,9.85
2023-05-21T01:04:58.717Z,9.56
2023-05-21T01:15:07.639Z,9.47
2023-05-21T01:25:16.478Z,10.17
2023-05-21T01:35:25.165Z,9.01
2023-05-21T01:45:34.001Z,10.99
2023-05-21T01:55:42.286Z,9.3
2023-05-21T02:05:51.107Z,11.26
2023-05-21T02:16:00.061Z,12.15
2023-05-21T02:26:08.782Z,12.66
2023-05-21T02:36:17.662Z,12.91
2023-05-21T02:46:26.623Z,13.53
2023-05-21T02:56:35.460Z,9.52
2023-05-21T03:06:44.472Z,11.32
2023-05-21T03:16:53.462Z,13.43
2023-05-21T03:27:02.266Z,11.8
2023-05-21T03:37:11.054Z,14.08
2023-05-21T03:47:19.878Z,9.7
2023-05-21T03:57:28.604Z,12.2
2023-05-21T04:07:37.415Z,9.63
2023-05-21T04:17:46.284Z,10.75
2023-05-21T04:27:55.060Z,9.95
2023-05-21T04:38:04.179Z,9.97
2023-05-21T04:48:11.956Z,14.54
2023-05-21T04:58:20.758Z,10.64
2023-05-21T05:08:29.633Z,12.88
2023-05-21T05:18:38.429Z,12.02
2023-05-21T05:28:47.298Z,10.79
2023-05-21T05:38:56.309Z,11.76
2023-05-21T05:49:05.243Z,15.85
2023-05-21T05:59:14.209Z,12.28
2023-05-21T06:09:23.112Z,12.02
2023-05-21T06:19:32.163Z,9.84
2023-05-21T06:29:41.029Z,13.65
2023-05-21T06:39:49.972Z,10.58
2023-05-21T06:50:00.210Z,10.37
2023-05-21T06:59:59.017Z,8.08
2023-05-21T07:10:09.569Z,8.07
2023-05-21T07:20:08.540Z,7.91
2023-05-21T07:30:17.545Z,6.62
2023-05-21T07:40:26.512Z,6.3
2023-05-21T07:50:35.302Z,7.87
2023-05-21T08:00:44.106Z,7.29
2023-05-21T08:10:52.991Z,5.19
2023-05-21T08:21:01.925Z,5.68
2023-05-21T08:31:10.851Z,5.07
2023-05-21T08:41:19.571Z,5.21
2023-05-21T08:51:28.382Z,5.44
2023-05-21T09:01:37.381Z,5.6
2023-05-21T09:11:46.183Z,9.21
2023-05-21T09:21:54.990Z,7.44
2023-05-21T09:32:03.880Z,6.42
2023-05-21T09:42:12.701Z,6.42
2023-05-21T09:52:21.514Z,7.63
2023-05-21T10:02:30.476Z,6.7
2023-05-21T10:12:39.220Z,6.18
2023-05-21T10:22:48.189Z,5.82
2023-05-21T10:32:57.226Z,6.2
2023-05-21T10:43:05.870Z,6.69
2023-05-21T10:53:13.767Z,5.33
2023-05-21T11:03:22.595Z,7.7
2023-05-21T11:13:31.273Z,8.29
2023-05-21T11:23:40.144Z,8.44
2023-05-21T11:33:48.965Z,8.53
2023-05-21T11:43:57.801Z,7.19
2023-05-21T11:54:06.618Z,7.48
2023-05-21T12:04:15.390Z,7.3
2023-05-21T12:14:24.300Z,7.24
2023-05-21T12:24:32.992Z,8.77
2023-05-21T12:34:41.832Z,8.85
2023-05-21T12:44:50.771Z,9.14
2023-05-21T12:54:59.686Z,9.75
2023-05-21T13:05:08.564Z,9.07
2023-05-21T13:15:17.647Z,8.45
2023-05-21T13:25:27.508Z,6.64
2023-05-21T13:35:26.363Z,7.72
2023-05-21T13:45:35.151Z,7.59
2023-05-21T13:55:43.853Z,6.25
2023-05-21T14:05:52.676Z,6.49
2023-05-21T14:16:03.445Z,6.57
2023-05-21T14:26:03.172Z,6.63
2023-05-21T14:36:18.301Z,6.75
2023-05-21T14:46:18.169Z,7.26
2023-05-21T14:56:27.898Z,5.8
2023-05-21T15:06:39.078Z,6.61
2023-05-21T15:26:42.725Z,7.11
2023-05-21T15:37:04.401Z,6.75
2023-05-21T15:46:46.323Z,7.1
2023-05-21T15:56:45.104Z,6.13
2023-05-21T16:06:57.897Z,6.72
2023-05-21T16:17:10.428Z,6.2
2023-05-21T16:27:03.395Z,7.79
2023-05-21T16:37:02.214Z,5.27
2023-05-21T16:47:11.254Z,6.56
2023-05-21T16:57:20.136Z,5.73
2023-05-21T17:07:30.068Z,6.22
2023-05-21T17:17:29.063Z,6.46
2023-05-21T17:27:37.914Z,6.48
2023-05-21T17:37:46.944Z,6.42
2023-05-21T17:48:36.692Z,6.54
2023-05-21T17:58:02.806Z,6.53
2023-05-21T18:08:11.807Z,5.67
2023-05-21T18:18:21.591Z,7.25
2023-05-21T18:28:28.870Z,8.02
2023-05-21T18:38:37.926Z,6.55
2023-05-21T18:48:46.817Z,6.98
2023-05-21T18:58:55.663Z,8.55
2023-05-21T19:09:04.424Z,8.14
2023-05-21T19:19:13.245Z,8.56
2023-05-21T19:29:24.865Z,7.81
2023-05-21T19:39:24.828Z,8.79
2023-05-21T19:49:33.834Z,7.71
2023-05-21T19:59:42.722Z,7.56
2023-05-21T20:09:51.591Z,7.86
2023-05-21T20:20:00.434Z,6.09
2023-05-21T20:30:09.135Z,8.94
2023-05-21T20:40:17.455Z,6.55
2023-05-21T20:50:26.177Z,7.86
2023-05-21T21:00:34.913Z,7.34
2023-05-21T21:10:43.747Z,7.84
2023-05-21T21:20:52.593Z,7.19
2023-05-21T21:31:01.306Z,7.52
2023-05-21T21:41:10.150Z,7.39
2023-05-21T21:51:19.639Z,10.86
2023-05-21T22:01:26.868Z,10.3
2023-05-21T22:11:35.676Z,8.61
2023-05-21T22:21:44.508Z,8.3
2023-05-21T22:31:53.290Z,7.94
2023-05-21T22:42:02.057Z,7.02
2023-05-21T22:52:11.788Z,7.28
2023-05-21T23:02:11.461Z,6.78
2023-05-21T23:12:20.224Z,8.09
2023-05-21T23:22:28.976Z,9.99
2023-05-21T23:32:37.744Z,9.19
2023-05-21T23:42:46.360Z,11.4
2023-05-21T23:52:55.116Z,9.37
